Time;durP1;ratioP1;P1;durP2;ratioP2;P2;SDS_P1;SDS_P2;PMS_P1;PMS_P2;Temp;Humidity;BMP_temperature;BMP_pressure;BME280_temperature;BME280_humidity;BME280_pressure;Samples;Min_cycle;Max_cycle;Signal;HPM_P1;HPM_P2
2022/05/25 00:02:01;;;;;;;11.25;7.38;;;;;;;;;;4985717;28;20050;-83
2022/05/25 00:04:27;;;;;;;15.15;7.90;;;;;;;;;;4991847;28;20050;-82
2022/05/25 00:06:54;;;;;;;13.75;7.68;;;;;;;;;;4970439;28;20053;-82
2022/05/25 00:09:20;;;;;;;13.70;8.35;;;;;;;;;;4970612;28;20076;-83
2022/05/25 00:11:47;;;;;;;13.57;8.02;;;;;;;;;;5002527;28;20058;-83
2022/05/25 00:14:13;;;;;;;12.63;7.93;;;;;;;;;;4969333;28;20070;-83
2022/05/25 00:16:39;;;;;;;14.25;8.68;;;;;;;;;;5002704;28;20493;-82
2022/05/25 00:21:50;;;;;;;14.63;9.10;;;;;;;;;;4989036;28;20050;-83
2022/05/25 00:24:16;;;;;;;14.70;8.93;;;;;;;;;;4988716;28;20046;-83
2022/05/25 00:26:42;;;;;;;15.20;9.20;;;;;;;;;;4972514;28;20406;-79
2022/05/25 00:29:08;;;;;;;15.88;9.25;;;;;;;;;;4971179;28;20059;-79
2022/05/25 00:31:35;;;;;;;13.85;8.88;;;;;;;;;;4970352;28;20078;-79
2022/05/25 00:34:01;;;;;;;15.32;8.88;;;;;;;;;;4988852;28;20048;-79
2022/05/25 00:36:28;;;;;;;16.90;9.60;;;;;;;;;;4995634;28;20043;-79
2022/05/25 00:38:54;;;;;;;13.85;9.07;;;;;;;;;;4971838;28;20113;-79
2022/05/25 00:41:30;;;;;;;16.20;9.93;;;;;;;;;;4988271;28;20050;-79
2022/05/25 00:43:57;;;;;;;14.95;9.95;;;;;;;;;;4982564;28;20042;-79
2022/05/25 00:46:24;;;;;;;18.80;10.13;;;;;;;;;;4983699;28;20042;-78
2022/05/25 00:48:52;;;;;;;17.40;10.95;;;;;;;;;;4969845;28;20043;-79
2022/05/25 00:51:22;;;;;;;18.80;10.25;;;;;;;;;;4973862;28;20034;-79
2022/05/25 00:54:24;;;;;;;20.05;11.05;;;;;;;;;;4988247;28;20538;-79
2022/05/25 00:56:51;;;;;;;17.98;10.32;;;;;;;;;;4947032;28;20499;-79
2022/05/25 00:59:19;;;;;;;18.77;11.18;;;;;;;;;;4984265;28;20108;-79
2022/05/25 01:01:45;;;;;;;15.13;9.77;;;;;;;;;;4984315;28;20038;-78
2022/05/25 01:04:11;;;;;;;17.60;11.15;;;;;;;;;;4978301;28;20046;-78
2022/05/25 01:07:10;;;;;;;17.80;11.27;;;;;;;;;;4976080;28;20046;-78
2022/05/25 01:09:45;;;;;;;19.63;12.00;;;;;;;;;;4954393;28;20063;-80
2022/05/25 01:12:23;;;;;;;19.83;11.48;;;;;;;;;;4969097;28;20047;-79
2022/05/25 01:14:49;;;;;;;22.58;12.32;;;;;;;;;;4972538;28;20097;-79
2022/05/25 01:17:31;;;;;;;23.33;12.30;;;;;;;;;;4988115;28;20043;-80
2022/05/25 01:20:05;;;;;;;20.80;12.00;;;;;;;;;;5017105;28;20513;-79
2022/05/25 01:22:45;;;;;;;19.88;12.30;;;;;;;;;;4972349;28;20109;-79
2022/05/25 01:25:30;;;;;;;20.27;12.15;;;;;;;;;;4974440;28;20521;-83
2022/05/25 01:28:01;;;;;;;22.17;11.77;;;;;;;;;;4973626;28;20524;-84
2022/05/25 01:30:35;;;;;;;26.58;13.23;;;;;;;;;;5014370;28;20046;-83
2022/05/25 01:33:20;;;;;;;21.60;12.73;;;;;;;;;;4978893;28;20125;-83
2022/05/25 01:35:53;;;;;;;21.05;12.20;;;;;;;;;;4956947;28;20129;-79
2022/05/25 01:38:27;;;;;;;20.98;12.50;;;;;;;;;;4965041;28;20045;-84
2022/05/25 01:40:56;;;;;;;23.25;12.98;;;;;;;;;;4995384;28;20178;-84
2022/05/25 01:43:29;;;;;;;21.92;11.50;;;;;;;;;;4987718;28;20049;-83
2022/05/25 01:46:03;;;;;;;23.95;12.40;;;;;;;;;;4975341;28;20065;-84
2022/05/25 01:48:29;;;;;;;19.17;12.27;;;;;;;;;;4973832;28;20035;-83
2022/05/25 01:51:01;;;;;;;23.63;13.63;;;;;;;;;;4988294;28;20038;-84
2022/05/25 01:53:33;;;;;;;19.88;13.20;;;;;;;;;;4992168;28;20049;-84
2022/05/25 01:56:00;;;;;;;24.80;12.73;;;;;;;;;;4990377;28;20042;-84
2022/05/25 01:58:26;;;;;;;23.08;13.50;;;;;;;;;;4974311;28;20088;-83
2022/05/25 02:00:56;;;;;;;23.02;13.00;;;;;;;;;;4982779;28;20094;-84
2022/05/25 02:06:13;;;;;;;20.70;13.05;;;;;;;;;;4988649;28;20129;-80
2022/05/25 02:08:58;;;;;;;24.40;12.90;;;;;;;;;;4976882;28;20145;-80
2022/05/25 02:11:24;;;;;;;24.27;13.57;;;;;;;;;;4988675;28;20567;-80
2022/05/25 02:14:09;;;;;;;25.73;13.57;;;;;;;;;;4992434;28;20030;-80
2022/05/25 02:16:41;;;;;;;17.55;11.02;;;;;;;;;;4991288;28;20401;-79
2022/05/25 02:19:17;;;;;;;22.88;13.20;;;;;;;;;;4981597;28;20050;-80
2022/05/25 02:21:47;;;;;;;21.58;13.65;;;;;;;;;;4988421;28;20412;-80
2022/05/25 02:24:16;;;;;;;19.65;12.80;;;;;;;;;;4991789;28;20054;-80
2022/05/25 02:26:52;;;;;;;22.02;13.25;;;;;;;;;;4991605;28;20073;-85
2022/05/25 02:29:22;;;;;;;27.60;14.23;;;;;;;;;;4972630;28;20082;-80
2022/05/25 02:31:51;;;;;;;23.52;13.52;;;;;;;;;;4972974;28;20051;-80
2022/05/25 02:34:20;;;;;;;21.05;12.88;;;;;;;;;;4991512;28;20054;-80
2022/05/25 02:36:47;;;;;;;24.50;14.23;;;;;;;;;;4991398;28;20477;-80
2022/05/25 02:39:13;;;;;;;25.92;14.45;;;;;;;;;;4990751;28;20132;-80
2022/05/25 02:41:46;;;;;;;23.55;14.13;;;;;;;;;;4987340;28;20035;-85
2022/05/25 02:44:12;;;;;;;22.50;13.75;;;;;;;;;;5005731;28;20043;-86
2022/05/25 02:46:38;;;;;;;25.02;14.27;;;;;;;;;;4970934;28;20034;-86
2022/05/25 02:49:04;;;;;;;25.08;13.63;;;;;;;;;;4990220;28;20047;-86
2022/05/25 02:51:31;;;;;;;23.20;12.95;;;;;;;;;;4985731;28;20147;-85
2022/05/25 02:53:57;;;;;;;24.48;13.23;;;;;;;;;;4975560;28;20096;-86
2022/05/25 02:56:23;;;;;;;22.85;13.48;;;;;;;;;;4955431;28;20636;-85
2022/05/25 02:58:49;;;;;;;22.88;13.20;;;;;;;;;;4956410;28;20077;-86
2022/05/25 03:01:15;;;;;;;22.63;13.75;;;;;;;;;;4986775;28;20131;-86
2022/05/25 03:03:41;;;;;;;22.77;13.55;;;;;;;;;;4980409;28;20050;-86
2022/05/25 03:06:08;;;;;;;23.15;12.85;;;;;;;;;;5004040;28;20047;-85
2022/05/25 03:08:35;;;;;;;25.08;12.88;;;;;;;;;;5003567;28;20110;-86
2022/05/25 03:11:03;;;;;;;24.17;13.43;;;;;;;;;;4971249;28;20051;-85
2022/05/25 03:13:29;;;;;;;24.00;13.55;;;;;;;;;;4973544;28;20400;-85
2022/05/25 03:15:59;;;;;;;24.08;13.25;;;;;;;;;;5003901;28;20093;-86
2022/05/25 03:18:25;;;;;;;21.52;13.30;;;;;;;;;;5017092;28;20514;-86
2022/05/25 03:20:51;;;;;;;23.00;13.40;;;;;;;;;;4990522;28;20073;-87
2022/05/25 03:23:17;;;;;;;23.27;13.43;;;;;;;;;;4977456;28;20043;-86
2022/05/25 03:25:44;;;;;;;23.13;14.07;;;;;;;;;;4972946;28;20066;-86
2022/05/25 03:28:10;;;;;;;22.27;12.70;;;;;;;;;;4973165;28;20053;-86
2022/05/25 03:30:36;;;;;;;23.83;14.40;;;;;;;;;;4979575;28;20043;-86
2022/05/25 03:33:02;;;;;;;24.73;13.98;;;;;;;;;;4967886;28;20066;-86
2022/05/25 03:35:28;;;;;;;23.80;13.80;;;;;;;;;;4977536;28;20039;-86
2022/05/25 03:37:55;;;;;;;24.75;14.18;;;;;;;;;;4970282;28;20039;-87
2022/05/25 03:40:21;;;;;;;27.63;13.90;;;;;;;;;;4970735;28;20042;-87
2022/05/25 03:42:48;;;;;;;23.80;13.57;;;;;;;;;;4970841;28;20097;-87
2022/05/25 03:45:15;;;;;;;26.42;14.40;;;;;;;;;;4978415;28;20160;-85
2022/05/25 03:47:41;;;;;;;21.40;12.45;;;;;;;;;;4971533;28;20041;-85
2022/05/25 03:50:08;;;;;;;20.15;13.15;;;;;;;;;;4970074;28;20047;-86
2022/05/25 03:52:34;;;;;;;21.63;13.25;;;;;;;;;;4984752;28;20035;-86
2022/05/25 03:55:00;;;;;;;21.77;12.93;;;;;;;;;;4970638;28;20390;-86
2022/05/25 03:57:27;;;;;;;21.95;12.73;;;;;;;;;;4988275;28;20489;-86
2022/05/25 03:59:53;;;;;;;18.45;12.20;;;;;;;;;;4975144;28;20406;-87
2022/05/25 04:02:20;;;;;;;18.70;11.70;;;;;;;;;;4970137;28;20042;-87
2022/05/25 04:04:46;;;;;;;16.67;10.57;;;;;;;;;;4963439;28;20047;-87
2022/05/25 04:07:12;;;;;;;17.17;11.45;;;;;;;;;;4991817;28;20505;-88
2022/05/25 04:09:38;;;;;;;14.93;10.27;;;;;;;;;;4958242;28;20047;-85
2022/05/25 04:12:05;;;;;;;16.20;9.32;;;;;;;;;;4969951;28;20047;-86
2022/05/25 04:14:31;;;;;;;12.52;8.73;;;;;;;;;;4954431;28;20525;-87
2022/05/25 04:16:57;;;;;;;12.52;8.68;;;;;;;;;;4992213;28;20445;-86
2022/05/25 04:19:23;;;;;;;12.80;8.63;;;;;;;;;;4962508;28;20050;-86
2022/05/25 04:21:49;;;;;;;12.57;8.57;;;;;;;;;;4953822;28;20141;-85
2022/05/25 04:24:16;;;;;;;13.13;8.23;;;;;;;;;;4961393;28;20394;-85
2022/05/25 04:26:43;;;;;;;11.20;8.35;;;;;;;;;;4988692;28;20062;-86
2022/05/25 04:29:09;;;;;;;11.02;8.23;;;;;;;;;;4988256;28;20057;-82
2022/05/25 04:31:35;;;;;;;10.73;7.50;;;;;;;;;;4987008;28;20046;-81
2022/05/25 04:34:01;;;;;;;11.38;8.35;;;;;;;;;;4974624;28;20053;-86
2022/05/25 04:36:27;;;;;;;9.65;7.63;;;;;;;;;;4986568;28;20085;-85
2022/05/25 04:38:53;;;;;;;11.45;7.97;;;;;;;;;;4981602;28;20121;-86
2022/05/25 04:41:21;;;;;;;11.27;7.40;;;;;;;;;;4968913;28;20046;-86
2022/05/25 04:43:47;;;;;;;12.43;7.50;;;;;;;;;;4973416;28;20394;-85
2022/05/25 04:46:13;;;;;;;11.18;7.50;;;;;;;;;;4987127;28;20050;-86
2022/05/25 04:48:40;;;;;;;10.27;7.13;;;;;;;;;;4984463;28;20042;-86
2022/05/25 04:51:06;;;;;;;8.63;7.38;;;;;;;;;;4968911;28;20047;-86
2022/05/25 04:53:32;;;;;;;10.65;6.93;;;;;;;;;;4969148;28;20039;-87
2022/05/25 04:58:44;;;;;;;9.82;6.95;;;;;;;;;;4968130;28;20054;-84
2022/05/25 05:01:11;;;;;;;11.48;8.15;;;;;;;;;;4967916;28;20043;-87
2022/05/25 05:03:37;;;;;;;9.25;7.30;;;;;;;;;;4968473;28;20058;-86
2022/05/25 05:06:04;;;;;;;11.15;7.43;;;;;;;;;;4969163;28;20460;-85
2022/05/25 05:08:30;;;;;;;11.32;7.93;;;;;;;;;;4969411;28;20062;-84
2022/05/25 05:10:57;;;;;;;12.57;7.45;;;;;;;;;;4969659;28;20054;-85
2022/05/25 05:13:23;;;;;;;9.93;7.20;;;;;;;;;;4981649;28;20054;-84
2022/05/25 05:15:52;;;;;;;10.55;7.05;;;;;;;;;;4969948;28;20053;-86
2022/05/25 05:18:18;;;;;;;12.48;7.45;;;;;;;;;;4985709;28;20042;-85
2022/05/25 05:20:45;;;;;;;13.20;7.57;;;;;;;;;;4953037;28;20089;-84
2022/05/25 05:23:11;;;;;;;11.57;7.32;;;;;;;;;;4968804;28;20039;-86
2022/05/25 05:25:38;;;;;;;10.82;7.30;;;;;;;;;;4984994;28;20050;-85
2022/05/25 05:28:20;;;;;;;11.20;7.50;;;;;;;;;;4972934;28;20042;-88
2022/05/25 05:30:54;;;;;;;10.55;7.00;;;;;;;;;;4968773;28;20135;-83
2022/05/25 05:33:21;;;;;;;11.27;6.68;;;;;;;;;;4968907;28;20050;-82
2022/05/25 05:35:48;;;;;;;12.13;7.22;;;;;;;;;;4953583;28;20517;-83
2022/05/25 05:38:16;;;;;;;8.25;6.85;;;;;;;;;;4969616;28;20046;-78
2022/05/25 05:40:42;;;;;;;10.82;6.38;;;;;;;;;;4968829;28;20043;-79
2022/05/25 05:43:09;;;;;;;14.77;6.70;;;;;;;;;;4968996;28;20394;-78
2022/05/25 05:45:37;;;;;;;8.85;6.75;;;;;;;;;;4968820;28;20461;-80
2022/05/25 05:48:10;;;;;;;10.70;6.30;;;;;;;;;;4968991;28;20055;-78
2022/05/25 05:50:38;;;;;;;11.68;7.10;;;;;;;;;;4971591;28;20042;-79
2022/05/25 05:53:04;;;;;;;9.98;6.20;;;;;;;;;;4985187;28;20046;-79
2022/05/25 05:55:31;;;;;;;9.10;6.40;;;;;;;;;;4969555;28;20093;-78
2022/05/25 05:57:57;;;;;;;10.68;6.38;;;;;;;;;;4985492;28;20407;-77
2022/05/25 06:00:23;;;;;;;12.55;6.30;;;;;;;;;;4970461;28;20078;-78
2022/05/25 06:02:50;;;;;;;10.40;6.32;;;;;;;;;;4968879;28;20510;-78
2022/05/25 06:05:16;;;;;;;12.32;6.72;;;;;;;;;;4985002;28;20039;-79
2022/05/25 06:07:42;;;;;;;12.77;6.57;;;;;;;;;;4951614;28;20031;-80
2022/05/25 06:10:09;;;;;;;10.43;6.57;;;;;;;;;;4979821;28;20050;-78
2022/05/25 06:12:35;;;;;;;11.38;6.70;;;;;;;;;;4968818;28;20654;-78
2022/05/25 06:19:25;;;;;;;11.60;7.20;;;;;;;;;;4987396;28;20047;-77
2022/05/25 06:20:33;;;;;;;12.25;6.53;;;;;;;;;;4982250;28;20082;-77
2022/05/25 06:22:59;;;;;;;8.55;6.72;;;;;;;;;;4980863;28;20097;-76
2022/05/25 06:25:25;;;;;;;12.43;6.53;;;;;;;;;;4971870;28;20117;-77
2022/05/25 06:27:51;;;;;;;9.30;6.80;;;;;;;;;;4955988;28;20039;-76
2022/05/25 06:30:17;;;;;;;10.43;6.85;;;;;;;;;;4971794;28;20466;-75
2022/05/25 06:32:43;;;;;;;7.82;6.22;;;;;;;;;;4981112;28;20046;-77
2022/05/25 06:35:10;;;;;;;8.68;6.10;;;;;;;;;;4972082;28;20050;-77
2022/05/25 06:37:36;;;;;;;9.75;6.30;;;;;;;;;;4976791;28;20054;-77
2022/05/25 06:40:03;;;;;;;8.15;6.13;;;;;;;;;;4976458;28;20078;-77
2022/05/25 06:42:29;;;;;;;9.80;5.60;;;;;;;;;;4955925;28;20045;-75
2022/05/25 06:44:55;;;;;;;12.43;6.28;;;;;;;;;;4971512;28;20042;-78
2022/05/25 06:47:21;;;;;;;9.75;5.88;;;;;;;;;;4971377;28;20479;-77
2022/05/25 06:49:47;;;;;;;9.07;5.63;;;;;;;;;;4975514;28;20070;-76
2022/05/25 06:52:15;;;;;;;9.13;5.57;;;;;;;;;;4985277;28;20441;-78
2022/05/25 06:54:42;;;;;;;9.75;5.40;;;;;;;;;;4971512;28;20066;-76
2022/05/25 06:57:08;;;;;;;9.55;4.78;;;;;;;;;;4972478;28;20046;-77
2022/05/25 06:59:34;;;;;;;10.20;5.28;;;;;;;;;;4972057;28;20402;-77
2022/05/25 07:02:00;;;;;;;7.88;5.38;;;;;;;;;;4972112;28;20078;-76
2022/05/25 07:04:26;;;;;;;8.55;4.60;;;;;;;;;;4970199;28;20085;-79
2022/05/25 07:06:52;;;;;;;5.93;4.38;;;;;;;;;;4971428;28;20174;-77
2022/05/25 07:09:18;;;;;;;6.35;4.43;;;;;;;;;;4971773;28;20069;-79
2022/05/25 07:11:49;;;;;;;6.63;4.28;;;;;;;;;;4955371;28;20494;-77
2022/05/25 07:14:16;;;;;;;5.85;4.40;;;;;;;;;;4971056;28;20049;-78
2022/05/25 07:16:42;;;;;;;8.13;4.55;;;;;;;;;;4986889;28;20050;-78
2022/05/25 07:19:08;;;;;;;7.85;4.70;;;;;;;;;;4969643;28;20050;-76
2022/05/25 07:21:34;;;;;;;7.40;4.05;;;;;;;;;;4990471;28;20045;-79
2022/05/25 07:24:01;;;;;;;6.35;3.97;;;;;;;;;;4990656;28;20061;-78
2022/05/25 07:26:29;;;;;;;8.55;4.40;;;;;;;;;;4990095;28;20112;-78
2022/05/25 07:28:55;;;;;;;8.02;4.70;;;;;;;;;;4980915;28;20049;-78
2022/05/25 07:31:21;;;;;;;7.68;4.30;;;;;;;;;;4987110;28;20053;-78
2022/05/25 07:33:49;;;;;;;8.20;4.28;;;;;;;;;;4972386;28;20042;-78
2022/05/25 07:36:15;;;;;;;5.38;3.78;;;;;;;;;;4986889;28;20078;-78
2022/05/25 07:38:51;;;;;;;6.03;4.00;;;;;;;;;;4988878;28;20587;-78
2022/05/25 07:41:18;;;;;;;6.15;3.92;;;;;;;;;;4990232;28;20050;-76
2022/05/25 07:43:45;;;;;;;7.07;4.30;;;;;;;;;;4972429;28;20042;-75
2022/05/25 07:46:11;;;;;;;7.43;4.60;;;;;;;;;;4954008;28;20039;-77
2022/05/25 07:48:37;;;;;;;8.10;4.65;;;;;;;;;;4954343;28;20050;-77
2022/05/25 07:51:04;;;;;;;7.90;4.28;;;;;;;;;;4955865;28;20122;-76
2022/05/25 07:56:16;;;;;;;;;;;;;;;;;;5005189;28;20035;-81
2022/05/25 07:58:45;;;;;;;8.68;5.10;;;;;;;;;;4967968;28;19922;-77
2022/05/25 08:01:12;;;;;;;6.47;4.32;;;;;;;;;;4970362;28;20503;-78
2022/05/25 08:06:24;;;;;;;9.45;5.32;;;;;;;;;;4950911;29;20047;-78
2022/05/25 08:08:51;;;;;;;7.07;5.10;;;;;;;;;;4976309;28;20406;-77
2022/05/25 08:11:20;;;;;;;8.45;4.80;;;;;;;;;;4952963;28;20046;-77
2022/05/25 08:13:50;;;;;;;7.57;5.00;;;;;;;;;;4978673;28;20049;-78
2022/05/25 08:16:16;;;;;;;9.02;4.72;;;;;;;;;;4988397;28;20046;-77
2022/05/25 08:18:43;;;;;;;9.00;5.00;;;;;;;;;;4960907;28;20274;-77
2022/05/25 08:21:09;;;;;;;8.13;5.07;;;;;;;;;;4952917;28;20411;-74
2022/05/25 08:23:35;;;;;;;7.63;5.22;;;;;;;;;;4953636;28;20046;-74
2022/05/25 08:26:02;;;;;;;7.63;5.10;;;;;;;;;;4969502;28;20047;-71
2022/05/25 08:28:28;;;;;;;8.50;5.22;;;;;;;;;;4968968;28;20043;-73
2022/05/25 08:30:54;;;;;;;7.88;4.68;;;;;;;;;;4970127;28;20039;-74
2022/05/25 08:33:21;;;;;;;9.60;4.68;;;;;;;;;;4969594;28;20038;-74
2022/05/25 08:35:48;;;;;;;8.43;4.60;;;;;;;;;;4983718;28;20042;-73
2022/05/25 08:38:15;;;;;;;9.13;3.97;;;;;;;;;;4976888;28;20031;-74
2022/05/25 08:40:41;;;;;;;8.13;4.22;;;;;;;;;;4970081;28;20502;-75
2022/05/25 08:43:12;;;;;;;6.82;3.90;;;;;;;;;;4970097;28;20046;-76
2022/05/25 08:45:43;;;;;;;7.35;3.63;;;;;;;;;;4971040;28;20043;-74
2022/05/25 08:48:11;;;;;;;9.55;3.97;;;;;;;;;;4985776;28;20039;-74
2022/05/25 08:50:38;;;;;;;6.97;4.03;;;;;;;;;;4985817;28;20085;-75
2022/05/25 08:53:05;;;;;;;7.47;3.83;;;;;;;;;;4970037;28;20483;-76
2022/05/25 08:55:34;;;;;;;8.65;3.70;;;;;;;;;;4969698;28;20192;-76
2022/05/25 08:58:01;;;;;;;7.38;3.88;;;;;;;;;;4986466;28;20049;-77
2022/05/25 09:00:27;;;;;;;12.70;4.18;;;;;;;;;;4969815;28;20446;-77
2022/05/25 09:03:12;;;;;;;8.40;4.50;;;;;;;;;;4969833;28;20046;-85
2022/05/25 09:05:45;;;;;;;7.72;5.10;;;;;;;;;;4972653;28;20078;-83
2022/05/25 09:08:30;;;;;;;10.32;4.55;;;;;;;;;;4976606;28;20058;-81
2022/05/25 09:10:59;;;;;;;8.57;4.50;;;;;;;;;;4969545;28;20098;-82
2022/05/25 09:13:28;;;;;;;14.57;4.78;;;;;;;;;;4970697;28;20046;-80
2022/05/25 09:18:43;;;;;;;6.93;4.63;;;;;;;;;;4994249;28;20051;-83
2022/05/25 09:21:09;;;;;;;6.68;4.18;;;;;;;;;;4970215;28;20584;-82
2022/05/25 09:23:35;;;;;;;5.15;3.88;;;;;;;;;;4971215;28;20057;-88
2022/05/25 09:26:01;;;;;;;6.85;4.38;;;;;;;;;;4970398;28;20137;-81
2022/05/25 09:28:36;;;;;;;5.70;3.55;;;;;;;;;;4980814;28;20050;-82
2022/05/25 09:31:04;;;;;;;7.47;3.80;;;;;;;;;;4969469;28;20042;-82
2022/05/25 09:33:36;;;;;;;5.72;4.00;;;;;;;;;;4969557;28;20093;-83
2022/05/25 09:36:23;;;;;;;6.53;3.70;;;;;;;;;;4989306;28;20570;-83
2022/05/25 09:38:57;;;;;;;6.70;3.63;;;;;;;;;;4975492;28;20446;-81
2022/05/25 09:41:27;;;;;;;5.85;3.90;;;;;;;;;;4969448;28;20112;-81
2022/05/25 09:43:54;;;;;;;6.20;3.88;;;;;;;;;;4970132;28;20054;-83
2022/05/25 09:46:26;;;;;;;10.63;4.38;;;;;;;;;;4953725;28;20050;-82
2022/05/25 09:48:58;;;;;;;9.45;4.50;;;;;;;;;;4971567;28;20662;-83
2022/05/25 09:51:50;;;;;;;8.38;3.90;;;;;;;;;;4961856;28;20043;-84
2022/05/25 09:54:16;;;;;;;6.80;3.75;;;;;;;;;;4989669;28;20050;-89
2022/05/25 09:56:50;;;;;;;7.60;3.80;;;;;;;;;;4993227;28;20065;-84
2022/05/25 09:59:26;;;;;;;4.82;3.40;;;;;;;;;;4992561;28;20050;-78
2022/05/25 10:01:52;;;;;;;6.00;3.50;;;;;;;;;;4978471;28;20049;-81
2022/05/25 10:04:37;;;;;;;5.80;3.20;;;;;;;;;;4981038;28;20050;-80
2022/05/25 10:07:15;;;;;;;6.93;3.40;;;;;;;;;;4956575;28;20085;-82
2022/05/25 10:09:45;;;;;;;5.50;3.95;;;;;;;;;;4990000;28;20054;-80
2022/05/25 10:12:37;;;;;;;5.82;3.90;;;;;;;;;;4975308;28;20089;-76
2022/05/25 10:15:11;;;;;;;6.50;4.07;;;;;;;;;;4973692;28;20050;-81
2022/05/25 10:17:40;;;;;;;8.63;3.88;;;;;;;;;;4974270;28;20049;-80
2022/05/25 10:20:25;;;;;;;7.30;3.88;;;;;;;;;;4975008;28;20426;-78
2022/05/25 10:23:08;;;;;;;8.48;3.65;;;;;;;;;;4976085;28;20073;-78
2022/05/25 10:25:40;;;;;;;8.10;4.30;;;;;;;;;;4988978;28;20515;-81
2022/05/25 10:28:17;;;;;;;8.00;4.82;;;;;;;;;;4973655;28;20062;-82
2022/05/25 10:36:57;;;;;;;;;;;;;;;;;;5006508;28;20043;-83
2022/05/25 10:39:18;;;;;;;10.20;4.95;;;;;;;;;;4966205;28;19936;-82
2022/05/25 10:41:45;;;;;;;7.53;4.97;;;;;;;;;;4972373;28;20046;-82
2022/05/25 10:44:16;;;;;;;8.07;5.13;;;;;;;;;;4987836;28;20050;-83
2022/05/25 10:46:46;;;;;;;7.82;5.90;;;;;;;;;;4988836;28;20513;-82
2022/05/25 10:49:21;;;;;;;9.68;5.88;;;;;;;;;;4988165;28;20074;-80
2022/05/25 10:51:53;;;;;;;9.77;5.43;;;;;;;;;;4988514;28;20038;-81
2022/05/25 10:57:25;;;;;;;11.43;6.82;;;;;;;;;;5004300;28;20043;-85
2022/05/25 11:00:10;;;;;;;11.50;7.63;;;;;;;;;;4970800;28;20070;-81
2022/05/25 11:02:45;;;;;;;10.55;7.45;;;;;;;;;;4986694;28;20053;-84
2022/05/25 11:05:18;;;;;;;9.93;7.35;;;;;;;;;;4972210;28;20507;-83
2022/05/25 11:07:44;;;;;;;9.95;5.40;;;;;;;;;;4974803;28;20047;-78
2022/05/25 11:10:19;;;;;;;8.55;5.38;;;;;;;;;;4979246;28;20098;-78
2022/05/25 11:12:48;;;;;;;11.18;5.28;;;;;;;;;;4972580;28;20053;-80
2022/05/25 11:15:14;;;;;;;15.02;5.88;;;;;;;;;;4971008;28;20098;-77
2022/05/25 11:17:59;;;;;;;13.77;7.05;;;;;;;;;;4970702;28;20098;-77
2022/05/25 11:20:28;;;;;;;7.93;6.60;;;;;;;;;;4971046;28;20055;-77
2022/05/25 11:23:04;;;;;;;8.48;6.40;;;;;;;;;;4970985;28;20039;-77
2022/05/25 11:25:59;;;;;;;15.05;7.70;;;;;;;;;;4979551;28;20046;-78
2022/05/25 11:28:44;;;;;;;15.88;8.25;;;;;;;;;;4963188;28;20057;-78
2022/05/25 11:31:21;;;;;;;11.90;7.40;;;;;;;;;;4974643;28;20046;-79
2022/05/25 11:33:47;;;;;;;9.95;7.00;;;;;;;;;;4975232;28;20042;-79
2022/05/25 11:36:24;;;;;;;9.15;6.63;;;;;;;;;;4982853;28;20046;-79
2022/05/25 11:39:03;;;;;;;7.88;4.90;;;;;;;;;;4986815;28;20047;-81
2022/05/25 11:41:33;;;;;;;6.90;4.13;;;;;;;;;;4954132;28;20528;-80
2022/05/25 11:44:17;;;;;;;5.15;2.05;;;;;;;;;;4970404;28;20043;-79
2022/05/25 11:46:44;;;;;;;3.22;1.35;;;;;;;;;;4994669;28;20109;-79
2022/05/25 11:49:26;;;;;;;7.25;1.30;;;;;;;;;;4970888;28;20604;-80
2022/05/25 11:51:58;;;;;;;3.53;1.08;;;;;;;;;;4970481;28;20162;-79
2022/05/25 11:54:30;;;;;;;4.78;1.20;;;;;;;;;;4971780;28;20046;-80
2022/05/25 11:57:11;;;;;;;3.15;1.13;;;;;;;;;;4970467;28;20058;-79
2022/05/25 11:59:37;;;;;;;4.22;1.00;;;;;;;;;;4970584;28;20046;-78
2022/05/25 12:02:09;;;;;;;5.15;0.90;;;;;;;;;;4985455;28;20133;-80
2022/05/25 12:04:41;;;;;;;4.70;1.42;;;;;;;;;;4969680;28;20053;-80
2022/05/25 12:07:16;;;;;;;4.18;0.98;;;;;;;;;;4985868;28;20158;-79
2022/05/25 12:09:42;;;;;;;3.65;0.95;;;;;;;;;;4972979;28;20116;-80
2022/05/25 12:12:09;;;;;;;4.28;1.33;;;;;;;;;;4983605;28;20050;-79
2022/05/25 12:14:57;;;;;;;5.30;1.00;;;;;;;;;;4983928;28;20043;-80
2022/05/25 12:17:29;;;;;;;2.95;0.80;;;;;;;;;;4968791;28;20054;-82
2022/05/25 12:19:56;;;;;;;5.45;0.90;;;;;;;;;;4969444;28;20510;-84
2022/05/25 12:22:28;;;;;;;6.25;1.00;;;;;;;;;;4969441;28;20042;-81
2022/05/25 12:24:56;;;;;;;4.43;1.00;;;;;;;;;;4969092;28;20038;-79
2022/05/25 12:27:28;;;;;;;1.88;0.70;;;;;;;;;;4971624;28;20447;-78
2022/05/25 12:29:56;;;;;;;4.82;1.00;;;;;;;;;;4969427;28;20379;-79
2022/05/25 12:32:22;;;;;;;3.67;0.90;;;;;;;;;;4970769;28;20522;-81
2022/05/25 12:34:50;;;;;;;3.55;0.95;;;;;;;;;;4986167;28;20070;-77
2022/05/25 12:37:24;;;;;;;2.17;0.80;;;;;;;;;;4998942;28;20446;-79
2022/05/25 12:39:50;;;;;;;4.53;0.70;;;;;;;;;;4972574;28;20042;-81
2022/05/25 12:42:26;;;;;;;4.82;0.77;;;;;;;;;;4954847;28;20046;-80
2022/05/25 12:50:34;;;;;;;2.85;0.70;;;;;;;;;;4982676;28;20050;-77
2022/05/25 12:53:33;;;;;;;3.58;0.70;;;;;;;;;;4985419;28;20138;-78
2022/05/25 12:56:00;;;;;;;6.15;1.23;;;;;;;;;;4953121;28;20054;-81
2022/05/25 12:58:45;;;;;;;3.85;0.90;;;;;;;;;;4985600;28;20490;-79
2022/05/25 13:01:15;;;;;;;5.57;0.70;;;;;;;;;;4985354;28;20078;-80
2022/05/25 13:03:47;;;;;;;3.80;0.75;;;;;;;;;;4977803;28;20039;-78
2022/05/25 13:06:15;;;;;;;7.15;0.95;;;;;;;;;;4985158;28;20038;-75
2022/05/25 13:08:50;;;;;;;4.05;0.82;;;;;;;;;;4985177;28;20058;-78
2022/05/25 13:11:30;;;;;;;4.85;0.98;;;;;;;;;;4953285;28;20051;-80
2022/05/25 13:13:56;;;;;;;3.70;0.80;;;;;;;;;;4981342;28;20132;-81
2022/05/25 13:16:41;;;;;;;3.33;0.75;;;;;;;;;;4988416;28;20042;-80
2022/05/25 13:19:21;;;;;;;4.18;0.80;;;;;;;;;;4977761;28;20043;-79
2022/05/25 13:21:53;;;;;;;2.55;0.70;;;;;;;;;;4970421;28;20520;-79
2022/05/25 13:24:23;;;;;;;5.97;0.80;;;;;;;;;;4988527;28;20047;-78
2022/05/25 13:27:06;;;;;;;5.85;0.93;;;;;;;;;;4973899;28;20042;-78
2022/05/25 13:29:51;;;;;;;4.50;0.95;;;;;;;;;;4971949;28;20043;-79
2022/05/25 13:32:38;;;;;;;2.60;0.70;;;;;;;;;;4972142;28;20038;-83
2022/05/25 13:35:14;;;;;;;2.67;0.80;;;;;;;;;;4973755;28;20431;-79
2022/05/25 13:37:40;;;;;;;4.57;0.90;;;;;;;;;;4989758;28;20055;-75
2022/05/25 13:40:10;;;;;;;4.68;1.20;;;;;;;;;;4974171;28;20057;-79
2022/05/25 13:42:39;;;;;;;2.97;0.80;;;;;;;;;;4972602;28;20078;-80
2022/05/25 13:45:09;;;;;;;4.03;0.80;;;;;;;;;;4981037;28;20050;-76
2022/05/25 13:47:36;;;;;;;4.63;0.93;;;;;;;;;;4991714;28;20054;-79
2022/05/25 13:50:02;;;;;;;7.57;1.38;;;;;;;;;;4992176;28;20047;-79
2022/05/25 13:52:35;;;;;;;3.00;0.73;;;;;;;;;;4967791;28;20163;-79
2022/05/25 13:55:04;;;;;;;3.35;0.85;;;;;;;;;;4975108;28;20041;-79
2022/05/25 13:57:33;;;;;;;3.67;0.68;;;;;;;;;;4991891;28;20051;-79
2022/05/25 14:00:02;;;;;;;3.50;0.80;;;;;;;;;;4994095;28;20046;-80
2022/05/25 14:02:32;;;;;;;3.65;0.70;;;;;;;;;;4988372;28;20108;-79
2022/05/25 14:05:02;;;;;;;4.32;0.77;;;;;;;;;;4956358;28;20074;-77
2022/05/25 14:07:38;;;;;;;1.95;0.70;;;;;;;;;;4973653;28;20461;-77
2022/05/25 14:12:54;;;;;;;4.93;0.75;;;;;;;;;;4987714;28;20039;-77
2022/05/25 14:15:23;;;;;;;5.45;0.60;;;;;;;;;;4972386;28;20125;-77
2022/05/25 14:17:56;;;;;;;3.55;0.80;;;;;;;;;;5004943;28;20138;-76
2022/05/25 14:20:25;;;;;;;4.18;0.70;;;;;;;;;;4972617;28;20045;-77
2022/05/25 14:22:51;;;;;;;3.95;0.73;;;;;;;;;;5005074;28;20054;-82
2022/05/25 14:25:20;;;;;;;2.40;0.80;;;;;;;;;;4988579;28;20105;-79
2022/05/25 14:27:47;;;;;;;6.13;0.93;;;;;;;;;;4973111;28;20046;-78
2022/05/25 14:30:19;;;;;;;5.50;1.00;;;;;;;;;;4971916;28;20403;-77
2022/05/25 14:32:57;;;;;;;8.45;1.23;;;;;;;;;;4972327;28;20102;-79
2022/05/25 14:35:23;;;;;;;7.65;1.30;;;;;;;;;;4970978;28;20398;-76
2022/05/25 14:37:50;;;;;;;3.97;0.98;;;;;;;;;;4980368;28;20267;-81
2022/05/25 14:40:18;;;;;;;5.88;1.17;;;;;;;;;;4992040;28;20078;-78
2022/05/25 14:42:52;;;;;;;4.45;1.08;;;;;;;;;;4991059;28;20093;-80
2022/05/25 14:45:18;;;;;;;5.00;1.20;;;;;;;;;;4982681;28;20050;-79
2022/05/25 14:47:49;;;;;;;8.05;1.25;;;;;;;;;;4975201;28;20378;-81
2022/05/25 14:50:24;;;;;;;8.38;1.45;;;;;;;;;;4975544;28;20047;-78
2022/05/25 14:52:58;;;;;;;6.25;1.20;;;;;;;;;;4973051;28;20057;-78
2022/05/25 14:55:27;;;;;;;6.47;1.02;;;;;;;;;;4987925;28;20125;-79
2022/05/25 14:58:04;;;;;;;7.55;1.30;;;;;;;;;;4972716;28;20391;-78
2022/05/25 15:00:31;;;;;;;5.30;1.08;;;;;;;;;;4968195;28;20043;-80
2022/05/25 15:02:59;;;;;;;10.60;1.30;;;;;;;;;;4968042;28;20134;-79
2022/05/25 15:05:37;;;;;;;11.25;1.52;;;;;;;;;;4987230;28;20515;-80
2022/05/25 15:08:04;;;;;;;5.38;1.02;;;;;;;;;;4955002;28;20050;-79
2022/05/25 15:10:32;;;;;;;6.38;1.05;;;;;;;;;;4956764;28;20068;-78
2022/05/25 15:12:58;;;;;;;6.45;0.88;;;;;;;;;;4970652;28;20054;-80
2022/05/25 15:18:30;;;;;;;7.22;1.13;;;;;;;;;;4971222;28;20490;-78
2022/05/25 15:20:57;;;;;;;6.50;1.23;;;;;;;;;;4987031;28;20046;-80
2022/05/25 15:23:23;;;;;;;10.38;1.25;;;;;;;;;;4969782;28;20030;-78
2022/05/25 15:25:54;;;;;;;7.32;1.30;;;;;;;;;;4970088;28;20037;-79
2022/05/25 15:28:20;;;;;;;8.73;1.45;;;;;;;;;;4969951;28;20049;-79
2022/05/25 15:30:51;;;;;;;7.18;1.10;;;;;;;;;;5003869;28;20049;-79
2022/05/25 15:33:18;;;;;;;8.40;1.70;;;;;;;;;;4970355;28;20054;-78